sensor_id;sensor_type;location;lat;lon;timestamp;temperature;humidity
33594;DHT22;19920;52.242;20.940;2023-03-12T00:00:00;-0.40;99.90
33594;DHT22;19920;52.242;20.940;2023-03-12T00:02:26;-0.30;99.90
33594;DHT22;19920;52.242;20.940;2023-03-12T00:04:52;-0.40;99.90
33594;DHT22;19920;52.242;20.940;2023-03-12T00:07:17;-0.40;99.90
33594;DHT22;19920;52.242;20.940;2023-03-12T00:09:43;-0.40;99.90
33594;DHT22;19920;52.242;20.940;2023-03-12T00:12:10;-0.40;99.90
33594;DHT22;19920;52.242;20.940;2023-03-12T00:14:35;-0.40;99.90
33594;DHT22;19920;52.242;20.940;2023-03-12T00:17:01;-0.40;99.90
33594;DHT22;19920;52.242;20.940;2023-03-12T00:19:27;-0.40;99.90
33594;DHT22;19920;52.242;20.940;2023-03-12T00:21:52;-0.40;99.90
33594;DHT22;19920;52.242;20.940;2023-03-12T00:24:18;-0.40;99.90
33594;DHT22;19920;52.242;20.940;2023-03-12T00:26:43;-0.40;99.90
33594;DHT22;19920;52.242;20.940;2023-03-12T00:29:09;-0.40;99.90
33594;DHT22;19920;52.242;20.940;2023-03-12T00:31:35;-0.40;99.90
33594;DHT22;19920;52.242;20.940;2023-03-12T00:34:01;-0.30;99.90
33594;DHT22;19920;52.242;20.940;2023-03-12T00:36:29;-0.30;99.90
33594;DHT22;19920;52.242;20.940;2023-03-12T00:38:56;-0.30;99.90
33594;DHT22;19920;52.242;20.940;2023-03-12T00:41:23;-0.30;99.90
33594;DHT22;19920;52.242;20.940;2023-03-12T00:43:50;-0.30;99.90
33594;DHT22;19920;52.242;20.940;2023-03-12T00:46:16;-0.20;99.90
33594;DHT22;19920;52.242;20.940;2023-03-12T00:48:42;-0.30;99.90
33594;DHT22;19920;52.242;20.940;2023-03-12T00:51:08;-0.30;99.90
33594;DHT22;19920;52.242;20.940;2023-03-12T00:53:34;-0.30;99.90
33594;DHT22;19920;52.242;20.940;2023-03-12T00:56:00;-0.20;99.90
33594;DHT22;19920;52.242;20.940;2023-03-12T00:58:26;-0.20;99.90
33594;DHT22;19920;52.242;20.940;2023-03-12T01:00:52;-0.20;99.90
33594;DHT22;19920;52.242;20.940;2023-03-12T01:03:17;-0.10;99.90
33594;DHT22;19920;52.242;20.940;2023-03-12T01:05:43;-0.10;99.90
33594;DHT22;19920;52.242;20.940;2023-03-12T01:08:09;-0.10;99.90
33594;DHT22;19920;52.242;20.940;2023-03-12T01:10:39;0.00;99.90
33594;DHT22;19920;52.242;20.940;2023-03-12T01:13:05;0.00;99.90
33594;DHT22;19920;52.242;20.940;2023-03-12T01:15:31;0.00;99.90
33594;DHT22;19920;52.242;20.940;2023-03-12T01:17:56;0.00;99.90
33594;DHT22;19920;52.242;20.940;2023-03-12T01:20:22;0.10;99.90
33594;DHT22;19920;52.242;20.940;2023-03-12T01:22:48;0.10;99.90
33594;DHT22;19920;52.242;20.940;2023-03-12T01:25:14;0.10;99.90
33594;DHT22;19920;52.242;20.940;2023-03-12T01:27:39;0.20;99.90
33594;DHT22;19920;52.242;20.940;2023-03-12T01:30:05;0.20;99.90
33594;DHT22;19920;52.242;20.940;2023-03-12T01:32:32;0.20;99.90
33594;DHT22;19920;52.242;20.940;2023-03-12T01:34:58;0.20;99.90
33594;DHT22;19920;52.242;20.940;2023-03-12T01:37:25;0.10;99.90
33594;DHT22;19920;52.242;20.940;2023-03-12T01:39:51;0.20;99.90
33594;DHT22;19920;52.242;20.940;2023-03-12T01:42:16;0.30;99.90
33594;DHT22;19920;52.242;20.940;2023-03-12T01:47:17;0.50;99.90
33594;DHT22;19920;52.242;20.940;2023-03-12T01:49:44;0.50;99.90
33594;DHT22;19920;52.242;20.940;2023-03-12T01:52:13;0.60;99.90
33594;DHT22;19920;52.242;20.940;2023-03-12T01:55:06;0.60;99.90
33594;DHT22;19920;52.242;20.940;2023-03-12T01:57:37;0.60;99.90
33594;DHT22;19920;52.242;20.940;2023-03-12T02:00:08;0.70;99.90
33594;DHT22;19920;52.242;20.940;2023-03-12T02:02:36;0.70;99.90
33594;DHT22;19920;52.242;20.940;2023-03-12T02:05:08;0.70;99.90
33594;DHT22;19920;52.242;20.940;2023-03-12T02:07:36;0.70;99.90
33594;DHT22;19920;52.242;20.940;2023-03-12T02:10:03;0.70;99.90
33594;DHT22;19920;52.242;20.940;2023-03-12T02:12:29;0.80;99.90
33594;DHT22;19920;52.242;20.940;2023-03-12T02:14:55;0.80;99.90
33594;DHT22;19920;52.242;20.940;2023-03-12T02:17:21;0.80;99.90
33594;DHT22;19920;52.242;20.940;2023-03-12T02:23:17;0.80;99.90
33594;DHT22;19920;52.242;20.940;2023-03-12T02:25:48;0.70;99.90
33594;DHT22;19920;52.242;20.940;2023-03-12T02:28:18;0.70;99.90
33594;DHT22;19920;52.242;20.940;2023-03-12T02:30:47;0.70;99.90
33594;DHT22;19920;52.242;20.940;2023-03-12T02:33:14;0.70;99.90
33594;DHT22;19920;52.242;20.940;2023-03-12T02:35:40;0.70;99.90
33594;DHT22;19920;52.242;20.940;2023-03-12T02:40:51;0.60;99.90
33594;DHT22;19920;52.242;20.940;2023-03-12T02:43:19;0.60;99.90
33594;DHT22;19920;52.242;20.940;2023-03-12T02:45:45;0.60;99.90
33594;DHT22;19920;52.242;20.940;2023-03-12T02:48:12;0.60;99.90
33594;DHT22;19920;52.242;20.940;2023-03-12T02:50:37;0.60;99.90
33594;DHT22;19920;52.242;20.940;2023-03-12T02:53:03;0.60;99.90
33594;DHT22;19920;52.242;20.940;2023-03-12T02:55:28;0.80;99.90
33594;DHT22;19920;52.242;20.940;2023-03-12T02:57:54;0.70;99.90
33594;DHT22;19920;52.242;20.940;2023-03-12T03:00:20;0.70;99.90
33594;DHT22;19920;52.242;20.940;2023-03-12T03:02:45;0.70;99.90
33594;DHT22;19920;52.242;20.940;2023-03-12T03:05:11;0.70;99.90
33594;DHT22;19920;52.242;20.940;2023-03-12T03:07:37;0.70;99.90
33594;DHT22;19920;52.242;20.940;2023-03-12T03:10:04;0.70;99.90
33594;DHT22;19920;52.242;20.940;2023-03-12T03:12:31;0.80;99.90
33594;DHT22;19920;52.242;20.940;2023-03-12T03:14:57;0.80;99.90
33594;DHT22;19920;52.242;20.940;2023-03-12T03:17:22;0.80;99.90
33594;DHT22;19920;52.242;20.940;2023-03-12T03:19:49;0.90;99.90
33594;DHT22;19920;52.242;20.940;2023-03-12T03:22:16;0.90;99.90
33594;DHT22;19920;52.242;20.940;2023-03-12T03:24:41;0.90;99.90
33594;DHT22;19920;52.242;20.940;2023-03-12T03:27:07;0.90;99.90
33594;DHT22;19920;52.242;20.940;2023-03-12T03:29:33;0.90;99.90
33594;DHT22;19920;52.242;20.940;2023-03-12T03:31:59;0.80;99.90
33594;DHT22;19920;52.242;20.940;2023-03-12T03:34:24;0.80;99.90
33594;DHT22;19920;52.242;20.940;2023-03-12T03:36:50;0.80;99.90
33594;DHT22;19920;52.242;20.940;2023-03-12T03:39:16;0.80;99.90
33594;DHT22;19920;52.242;20.940;2023-03-12T03:41:42;0.80;99.90
33594;DHT22;19920;52.242;20.940;2023-03-12T03:44:08;0.90;99.90
33594;DHT22;19920;52.242;20.940;2023-03-12T03:46:34;0.70;99.90
33594;DHT22;19920;52.242;20.940;2023-03-12T03:49:00;0.70;99.90
33594;DHT22;19920;52.242;20.940;2023-03-12T03:51:26;0.80;99.90
33594;DHT22;19920;52.242;20.940;2023-03-12T03:53:52;0.70;99.90
33594;DHT22;19920;52.242;20.940;2023-03-12T03:56:18;0.60;99.90
33594;DHT22;19920;52.242;20.940;2023-03-12T03:58:44;0.70;99.90
33594;DHT22;19920;52.242;20.940;2023-03-12T04:01:14;0.70;99.90
33594;DHT22;19920;52.242;20.940;2023-03-12T04:03:39;0.70;99.90
33594;DHT22;19920;52.242;20.940;2023-03-12T04:06:05;0.80;99.90
33594;DHT22;19920;52.242;20.940;2023-03-12T04:08:32;0.70;99.90
33594;DHT22;19920;52.242;20.940;2023-03-12T04:11:05;0.70;99.90
33594;DHT22;19920;52.242;20.940;2023-03-12T04:13:32;0.70;99.90
33594;DHT22;19920;52.242;20.940;2023-03-12T04:15:57;0.70;99.90
33594;DHT22;19920;52.242;20.940;2023-03-12T04:18:23;0.70;99.90
33594;DHT22;19920;52.242;20.940;2023-03-12T04:20:49;0.80;99.90
33594;DHT22;19920;52.242;20.940;2023-03-12T04:23:15;0.80;99.90
33594;DHT22;19920;52.242;20.940;2023-03-12T04:25:40;0.70;99.90
33594;DHT22;19920;52.242;20.940;2023-03-12T04:28:06;0.70;99.90
33594;DHT22;19920;52.242;20.940;2023-03-12T04:30:32;0.70;99.90
33594;DHT22;19920;52.242;20.940;2023-03-12T04:32:57;0.70;99.90
33594;DHT22;19920;52.242;20.940;2023-03-12T04:35:23;0.80;99.90
33594;DHT22;19920;52.242;20.940;2023-03-12T04:37:50;0.80;99.90
33594;DHT22;19920;52.242;20.940;2023-03-12T04:40:15;0.80;99.90
33594;DHT22;19920;52.242;20.940;2023-03-12T04:42:44;0.90;99.90
33594;DHT22;19920;52.242;20.940;2023-03-12T04:45:10;1.00;99.90
33594;DHT22;19920;52.242;20.940;2023-03-12T04:47:36;1.00;99.90
33594;DHT22;19920;52.242;20.940;2023-03-12T04:50:02;1.10;99.90
33594;DHT22;19920;52.242;20.940;2023-03-12T04:52:27;1.10;99.90
33594;DHT22;19920;52.242;20.940;2023-03-12T04:54:53;1.10;99.90
33594;DHT22;19920;52.242;20.940;2023-03-12T04:57:19;1.20;99.90
33594;DHT22;19920;52.242;20.940;2023-03-12T04:59:45;1.20;99.90
33594;DHT22;19920;52.242;20.940;2023-03-12T05:02:11;1.20;99.90
33594;DHT22;19920;52.242;20.940;2023-03-12T05:04:36;1.20;99.90
33594;DHT22;19920;52.242;20.940;2023-03-12T05:07:02;1.10;99.90
33594;DHT22;19920;52.242;20.940;2023-03-12T05:09:28;1.20;99.90
33594;DHT22;19920;52.242;20.940;2023-03-12T05:11:54;1.20;99.90
33594;DHT22;19920;52.242;20.940;2023-03-12T05:14:19;1.10;99.90
33594;DHT22;19920;52.242;20.940;2023-03-12T05:16:45;1.20;99.90
33594;DHT22;19920;52.242;20.940;2023-03-12T05:19:11;1.20;99.90
33594;DHT22;19920;52.242;20.940;2023-03-12T05:21:39;1.20;99.90
33594;DHT22;19920;52.242;20.940;2023-03-12T05:24:05;1.30;99.90
33594;DHT22;19920;52.242;20.940;2023-03-12T05:26:32;1.40;99.90
33594;DHT22;19920;52.242;20.940;2023-03-12T05:29:02;1.40;99.90
33594;DHT22;19920;52.242;20.940;2023-03-12T05:31:28;1.40;99.90
33594;DHT22;19920;52.242;20.940;2023-03-12T05:33:57;1.50;99.90
33594;DHT22;19920;52.242;20.940;2023-03-12T05:36:23;1.50;99.90
33594;DHT22;19920;52.242;20.940;2023-03-12T05:38:49;1.50;99.90
33594;DHT22;19920;52.242;20.940;2023-03-12T05:41:23;1.50;99.90
33594;DHT22;19920;52.242;20.940;2023-03-12T05:43:50;1.50;99.90
33594;DHT22;19920;52.242;20.940;2023-03-12T05:46:16;1.50;99.90
33594;DHT22;19920;52.242;20.940;2023-03-12T05:48:42;1.50;99.90
33594;DHT22;19920;52.242;20.940;2023-03-12T05:51:07;1.50;99.90
33594;DHT22;19920;52.242;20.940;2023-03-12T05:53:33;1.60;99.90
33594;DHT22;19920;52.242;20.940;2023-03-12T05:56:04;1.60;99.90
33594;DHT22;19920;52.242;20.940;2023-03-12T05:58:30;1.50;99.90
33594;DHT22;19920;52.242;20.940;2023-03-12T06:00:56;1.50;99.90
33594;DHT22;19920;52.242;20.940;2023-03-12T06:03:22;1.60;99.90
33594;DHT22;19920;52.242;20.940;2023-03-12T06:05:47;1.60;99.90
33594;DHT22;19920;52.242;20.940;2023-03-12T06:08:13;1.60;99.90
33594;DHT22;19920;52.242;20.940;2023-03-12T06:10:39;1.50;99.90
33594;DHT22;19920;52.242;20.940;2023-03-12T06:13:05;1.50;99.90
33594;DHT22;19920;52.242;20.940;2023-03-12T06:15:31;1.40;99.90
33594;DHT22;19920;52.242;20.940;2023-03-12T06:17:56;1.40;99.90
33594;DHT22;19920;52.242;20.940;2023-03-12T06:20:22;1.40;99.90
33594;DHT22;19920;52.242;20.940;2023-03-12T06:22:47;1.40;99.90
33594;DHT22;19920;52.242;20.940;2023-03-12T06:25:13;1.40;99.90
33594;DHT22;19920;52.242;20.940;2023-03-12T06:27:39;1.40;99.90
33594;DHT22;19920;52.242;20.940;2023-03-12T06:30:06;1.40;99.90
33594;DHT22;19920;52.242;20.940;2023-03-12T06:32:32;1.50;99.90
33594;DHT22;19920;52.242;20.940;2023-03-12T06:34:57;1.60;99.90
33594;DHT22;19920;52.242;20.940;2023-03-12T06:37:25;1.40;99.90
33594;DHT22;19920;52.242;20.940;2023-03-12T06:39:51;1.60;99.90
33594;DHT22;19920;52.242;20.940;2023-03-12T06:42:16;1.60;99.90
33594;DHT22;19920;52.242;20.940;2023-03-12T06:44:44;1.50;99.90
33594;DHT22;19920;52.242;20.940;2023-03-12T06:47:09;1.50;99.90
33594;DHT22;19920;52.242;20.940;2023-03-12T06:49:35;1.50;99.90
33594;DHT22;19920;52.242;20.940;2023-03-12T06:52:02;1.50;99.90
33594;DHT22;19920;52.242;20.940;2023-03-12T06:54:28;1.50;99.90
33594;DHT22;19920;52.242;20.940;2023-03-12T06:56:53;1.50;99.90
33594;DHT22;19920;52.242;20.940;2023-03-12T06:59:19;1.60;99.90
33594;DHT22;19920;52.242;20.940;2023-03-12T07:01:46;1.50;99.90
33594;DHT22;19920;52.242;20.940;2023-03-12T07:04:12;1.50;99.90
33594;DHT22;19920;52.242;20.940;2023-03-12T07:06:38;1.50;99.90
33594;DHT22;19920;52.242;20.940;2023-03-12T07:09:04;1.70;99.90
33594;DHT22;19920;52.242;20.940;2023-03-12T07:11:30;1.70;99.90
33594;DHT22;19920;52.242;20.940;2023-03-12T07:13:56;1.70;99.90
33594;DHT22;19920;52.242;20.940;2023-03-12T07:16:22;1.80;99.90
33594;DHT22;19920;52.242;20.940;2023-03-12T07:18:48;1.80;99.90
33594;DHT22;19920;52.242;20.940;2023-03-12T07:21:13;1.70;99.90
33594;DHT22;19920;52.242;20.940;2023-03-12T07:23:47;1.70;99.90
33594;DHT22;19920;52.242;20.940;2023-03-12T07:26:13;1.70;99.90
33594;DHT22;19920;52.242;20.940;2023-03-12T07:28:38;1.60;99.90
33594;DHT22;19920;52.242;20.940;2023-03-12T07:31:04;1.60;99.90
33594;DHT22;19920;52.242;20.940;2023-03-12T07:33:30;1.60;99.90
33594;DHT22;19920;52.242;20.940;2023-03-12T07:35:56;1.80;99.90
33594;DHT22;19920;52.242;20.940;2023-03-12T07:38:21;2.00;99.90
33594;DHT22;19920;52.242;20.940;2023-03-12T07:40:55;2.20;99.90
33594;DHT22;19920;52.242;20.940;2023-03-12T07:43:22;2.10;99.90
33594;DHT22;19920;52.242;20.940;2023-03-12T07:45:48;2.00;99.90
33594;DHT22;19920;52.242;20.940;2023-03-12T07:48:14;2.10;99.90
33594;DHT22;19920;52.242;20.940;2023-03-12T07:50:40;2.30;99.90
33594;DHT22;19920;52.242;20.940;2023-03-12T07:53:06;2.30;99.90
33594;DHT22;19920;52.242;20.940;2023-03-12T07:55:33;2.30;99.90
33594;DHT22;19920;52.242;20.940;2023-03-12T07:57:59;2.40;99.90
33594;DHT22;19920;52.242;20.940;2023-03-12T08:00:26;2.50;99.90
33594;DHT22;19920;52.242;20.940;2023-03-12T08:02:52;2.60;99.90
33594;DHT22;19920;52.242;20.940;2023-03-12T08:05:18;2.70;99.90
33594;DHT22;19920;52.242;20.940;2023-03-12T08:07:44;2.80;99.90
33594;DHT22;19920;52.242;20.940;2023-03-12T08:10:11;2.80;99.90
33594;DHT22;19920;52.242;20.940;2023-03-12T08:12:36;2.90;99.90
33594;DHT22;19920;52.242;20.940;2023-03-12T08:15:06;2.80;99.90
33594;DHT22;19920;52.242;20.940;2023-03-12T08:17:33;2.80;99.90
33594;DHT22;19920;52.242;20.940;2023-03-12T08:19:59;2.90;99.90
33594;DHT22;19920;52.242;20.940;2023-03-12T08:22:24;2.60;99.90
33594;DHT22;19920;52.242;20.940;2023-03-12T08:24:50;2.60;99.90
33594;DHT22;19920;52.242;20.940;2023-03-12T08:27:16;2.50;99.90
33594;DHT22;19920;52.242;20.940;2023-03-12T08:29:41;2.50;99.90
33594;DHT22;19920;52.242;20.940;2023-03-12T08:32:08;2.50;99.90
33594;DHT22;19920;52.242;20.940;2023-03-12T08:34:35;2.60;99.90
33594;DHT22;19920;52.242;20.940;2023-03-12T08:37:01;2.50;99.90
33594;DHT22;19920;52.242;20.940;2023-03-12T08:39:27;2.50;99.90
33594;DHT22;19920;52.242;20.940;2023-03-12T08:41:53;2.50;99.90
33594;DHT22;19920;52.242;20.940;2023-03-12T08:44:21;2.50;99.90
33594;DHT22;19920;52.242;20.940;2023-03-12T08:46:47;2.50;99.90
33594;DHT22;19920;52.242;20.940;2023-03-12T08:49:12;2.50;99.90
33594;DHT22;19920;52.242;20.940;2023-03-12T08:51:38;2.50;99.90
33594;DHT22;19920;52.242;20.940;2023-03-12T08:54:04;2.50;99.90
33594;DHT22;19920;52.242;20.940;2023-03-12T08:56:30;2.60;99.90
33594;DHT22;19920;52.242;20.940;2023-03-12T08:58:59;2.70;99.90
33594;DHT22;19920;52.242;20.940;2023-03-12T09:01:25;2.80;99.90
33594;DHT22;19920;52.242;20.940;2023-03-12T09:03:50;2.90;99.90
33594;DHT22;19920;52.242;20.940;2023-03-12T09:06:18;3.00;99.90
33594;DHT22;19920;52.242;20.940;2023-03-12T09:08:45;3.00;99.90
33594;DHT22;19920;52.242;20.940;2023-03-12T09:11:12;3.10;99.90
33594;DHT22;19920;52.242;20.940;2023-03-12T09:13:39;3.00;99.90
33594;DHT22;19920;52.242;20.940;2023-03-12T09:16:05;3.10;99.90
33594;DHT22;19920;52.242;20.940;2023-03-12T09:18:32;3.10;99.90
33594;DHT22;19920;52.242;20.940;2023-03-12T09:20:58;3.00;99.90
33594;DHT22;19920;52.242;20.940;2023-03-12T09:23:24;2.80;99.90
33594;DHT22;19920;52.242;20.940;2023-03-12T09:25:51;2.90;99.90
33594;DHT22;19920;52.242;20.940;2023-03-12T09:28:17;3.00;99.90
33594;DHT22;19920;52.242;20.940;2023-03-12T09:30:43;3.00;99.90
33594;DHT22;19920;52.242;20.940;2023-03-12T09:33:10;2.90;99.90
33594;DHT22;19920;52.242;20.940;2023-03-12T09:35:35;3.20;99.90
33594;DHT22;19920;52.242;20.940;2023-03-12T09:38:01;3.40;99.90
33594;DHT22;19920;52.242;20.940;2023-03-12T09:40:30;3.50;99.90
33594;DHT22;19920;52.242;20.940;2023-03-12T09:45:30;3.70;99.90
33594;DHT22;19920;52.242;20.940;2023-03-12T09:48:05;3.80;99.90
33594;DHT22;19920;52.242;20.940;2023-03-12T09:50:41;3.90;99.90
33594;DHT22;19920;52.242;20.940;2023-03-12T09:55:49;3.90;99.90
33594;DHT22;19920;52.242;20.940;2023-03-12T09:58:34;3.70;99.90
33594;DHT22;19920;52.242;20.940;2023-03-12T10:06:28;3.30;99.90
33594;DHT22;19920;52.242;20.940;2023-03-12T10:20:52;3.10;99.90
33594;DHT22;19920;52.242;20.940;2023-03-12T10:23:18;3.00;99.90
33594;DHT22;19920;52.242;20.940;2023-03-12T10:28:35;3.00;99.90
33594;DHT22;19920;52.242;20.940;2023-03-12T10:31:11;3.00;99.90
33594;DHT22;19920;52.242;20.940;2023-03-12T10:34:00;3.10;99.90
33594;DHT22;19920;52.242;20.940;2023-03-12T10:38:57;3.60;99.90
33594;DHT22;19920;52.242;20.940;2023-03-12T10:41:27;3.60;99.90
33594;DHT22;19920;52.242;20.940;2023-03-12T10:43:54;3.50;99.90
33594;DHT22;19920;52.242;20.940;2023-03-12T10:49:24;3.20;99.90
33594;DHT22;19920;52.242;20.940;2023-03-12T10:54:31;3.30;99.90
33594;DHT22;19920;52.242;20.940;2023-03-12T10:56:58;3.30;99.90
33594;DHT22;19920;52.242;20.940;2023-03-12T10:59:32;3.40;99.90
33594;DHT22;19920;52.242;20.940;2023-03-12T11:01:59;3.30;99.90
33594;DHT22;19920;52.242;20.940;2023-03-12T11:04:26;3.30;99.90
33594;DHT22;19920;52.242;20.940;2023-03-12T11:07:04;3.30;99.90
33594;DHT22;19920;52.242;20.940;2023-03-12T11:09:30;3.30;99.90
33594;DHT22;19920;52.242;20.940;2023-03-12T11:11:56;3.40;99.90
33594;DHT22;19920;52.242;20.940;2023-03-12T11:14:27;3.60;99.90
33594;DHT22;19920;52.242;20.940;2023-03-12T11:16:54;3.40;99.90
33594;DHT22;19920;52.242;20.940;2023-03-12T11:19:39;3.30;99.90
33594;DHT22;19920;52.242;20.940;2023-03-12T11:22:06;3.20;99.90
33594;DHT22;19920;52.242;20.940;2023-03-12T11:24:34;3.30;99.90
33594;DHT22;19920;52.242;20.940;2023-03-12T11:27:06;3.40;99.90
33594;DHT22;19920;52.242;20.940;2023-03-12T11:29:42;3.70;99.90
33594;DHT22;19920;52.242;20.940;2023-03-12T11:32:38;3.90;99.90
33594;DHT22;19920;52.242;20.940;2023-03-12T11:35:10;3.80;99.90
33594;DHT22;19920;52.242;20.940;2023-03-12T11:40:44;3.90;99.90
33594;DHT22;19920;52.242;20.940;2023-03-12T11:51:52;3.80;99.90
33594;DHT22;19920;52.242;20.940;2023-03-12T11:57:13;3.70;99.90
33594;DHT22;19920;52.242;20.940;2023-03-12T12:06:40;3.70;99.90
33594;DHT22;19920;52.242;20.940;2023-03-12T12:14:34;3.60;99.90
33594;DHT22;19920;52.242;20.940;2023-03-12T12:17:16;3.50;99.90
33594;DHT22;19920;52.242;20.940;2023-03-12T12:36:03;4.10;99.90
33594;DHT22;19920;52.242;20.940;2023-03-12T12:38:57;4.50;99.90
33594;DHT22;19920;52.242;20.940;2023-03-12T12:41:33;4.40;99.90
33594;DHT22;19920;52.242;20.940;2023-03-12T12:44:05;4.40;99.90
33594;DHT22;19920;52.242;20.940;2023-03-12T12:46:38;4.30;99.90
33594;DHT22;19920;52.242;20.940;2023-03-12T12:51:52;4.70;99.90
33594;DHT22;19920;52.242;20.940;2023-03-12T13:02:02;4.40;99.90
33594;DHT22;19920;52.242;20.940;2023-03-12T13:04:39;4.40;99.90
33594;DHT22;19920;52.242;20.940;2023-03-12T13:09:41;4.40;99.90
33594;DHT22;19920;52.242;20.940;2023-03-12T13:12:30;4.50;99.90
33594;DHT22;19920;52.242;20.940;2023-03-12T13:14:58;4.90;99.90
33594;DHT22;19920;52.242;20.940;2023-03-12T13:17:32;4.90;99.90
33594;DHT22;19920;52.242;20.940;2023-03-12T13:22:48;4.90;99.90
33594;DHT22;19920;52.242;20.940;2023-03-12T13:25:47;4.90;99.90
33594;DHT22;19920;52.242;20.940;2023-03-12T13:30:57;4.80;99.90
33594;DHT22;19920;52.242;20.940;2023-03-12T13:38:56;5.30;99.90
33594;DHT22;19920;52.242;20.940;2023-03-12T13:41:38;5.40;99.90
33594;DHT22;19920;52.242;20.940;2023-03-12T13:55:04;6.20;99.90
33594;DHT22;19920;52.242;20.940;2023-03-12T13:57:54;6.90;99.90
33594;DHT22;19920;52.242;20.940;2023-03-12T14:00:31;7.10;99.90
33594;DHT22;19920;52.242;20.940;2023-03-12T14:03:05;6.60;99.90
33594;DHT22;19920;52.242;20.940;2023-03-12T14:05:52;6.00;99.90
33594;DHT22;19920;52.242;20.940;2023-03-12T14:19:03;6.90;99.90
33594;DHT22;19920;52.242;20.940;2023-03-12T14:21:34;7.30;99.90
33594;DHT22;19920;52.242;20.940;2023-03-12T14:24:00;7.10;99.90
33594;DHT22;19920;52.242;20.940;2023-03-12T14:26:31;7.00;99.90
33594;DHT22;19920;52.242;20.940;2023-03-12T14:29:00;7.50;99.90
33594;DHT22;19920;52.242;20.940;2023-03-12T14:31:27;7.40;99.90
33594;DHT22;19920;52.242;20.940;2023-03-12T14:36:48;6.90;99.90
33594;DHT22;19920;52.242;20.940;2023-03-12T14:39:38;7.00;99.90
33594;DHT22;19920;52.242;20.940;2023-03-12T14:42:07;6.90;99.90
33594;DHT22;19920;52.242;20.940;2023-03-12T14:44:35;6.40;99.90
33594;DHT22;19920;52.242;20.940;2023-03-12T14:47:06;5.90;99.90
33594;DHT22;19920;52.242;20.940;2023-03-12T14:49:39;5.60;99.90
33594;DHT22;19920;52.242;20.940;2023-03-12T14:52:06;5.50;99.90
33594;DHT22;19920;52.242;20.940;2023-03-12T14:54:32;5.40;99.90
33594;DHT22;19920;52.242;20.940;2023-03-12T14:56:58;5.30;99.90
33594;DHT22;19920;52.242;20.940;2023-03-12T14:59:32;5.20;99.90
33594;DHT22;19920;52.242;20.940;2023-03-12T15:02:17;5.20;99.90
33594;DHT22;19920;52.242;20.940;2023-03-12T15:04:43;5.00;99.90
33594;DHT22;19920;52.242;20.940;2023-03-12T15:07:11;4.80;99.90
33594;DHT22;19920;52.242;20.940;2023-03-12T15:09:43;4.70;99.90
33594;DHT22;19920;52.242;20.940;2023-03-12T15:12:32;4.50;99.90
33594;DHT22;19920;52.242;20.940;2023-03-12T15:15:09;4.50;99.90
33594;DHT22;19920;52.242;20.940;2023-03-12T15:17:39;4.40;99.90
33594;DHT22;19920;52.242;20.940;2023-03-12T15:20:06;4.30;99.90
33594;DHT22;19920;52.242;20.940;2023-03-12T15:22:34;4.30;99.90
33594;DHT22;19920;52.242;20.940;2023-03-12T15:30:37;4.50;99.90
33594;DHT22;19920;52.242;20.940;2023-03-12T15:33:11;4.60;99.90
33594;DHT22;19920;52.242;20.940;2023-03-12T15:35:42;4.60;99.90
33594;DHT22;19920;52.242;20.940;2023-03-12T15:38:15;4.50;99.90
33594;DHT22;19920;52.242;20.940;2023-03-12T15:40:47;4.40;99.90
33594;DHT22;19920;52.242;20.940;2023-03-12T15:43:18;4.30;99.90
33594;DHT22;19920;52.242;20.940;2023-03-12T15:45:44;4.30;99.90
33594;DHT22;19920;52.242;20.940;2023-03-12T15:48:37;4.40;99.90
33594;DHT22;19920;52.242;20.940;2023-03-12T15:51:33;4.30;99.90
33594;DHT22;19920;52.242;20.940;2023-03-12T15:54:19;4.30;99.90
33594;DHT22;19920;52.242;20.940;2023-03-12T15:56:46;4.30;99.90
33594;DHT22;19920;52.242;20.940;2023-03-12T16:02:08;4.20;99.90
33594;DHT22;19920;52.242;20.940;2023-03-12T16:04:35;4.20;99.90
33594;DHT22;19920;52.242;20.940;2023-03-12T16:07:01;4.20;99.90
33594;DHT22;19920;52.242;20.940;2023-03-12T16:09:28;4.20;99.90
33594;DHT22;19920;52.242;20.940;2023-03-12T16:11:55;4.20;99.90
33594;DHT22;19920;52.242;20.940;2023-03-12T16:14:30;4.30;99.90
33594;DHT22;19920;52.242;20.940;2023-03-12T16:16:56;4.20;99.90
33594;DHT22;19920;52.242;20.940;2023-03-12T16:19:22;4.20;99.90
33594;DHT22;19920;52.242;20.940;2023-03-12T16:21:48;4.20;99.90
33594;DHT22;19920;52.242;20.940;2023-03-12T16:24:14;4.10;99.90
33594;DHT22;19920;52.242;20.940;2023-03-12T16:26:58;4.10;99.90
33594;DHT22;19920;52.242;20.940;2023-03-12T16:29:37;4.10;99.90
33594;DHT22;19920;52.242;20.940;2023-03-12T16:32:14;4.10;99.90
33594;DHT22;19920;52.242;20.940;2023-03-12T16:34:41;4.10;99.90
33594;DHT22;19920;52.242;20.940;2023-03-12T16:37:10;4.10;99.90
33594;DHT22;19920;52.242;20.940;2023-03-12T16:39:36;4.10;99.90
33594;DHT22;19920;52.242;20.940;2023-03-12T16:42:03;4.00;99.90
33594;DHT22;19920;52.242;20.940;2023-03-12T16:44:33;4.10;99.90
33594;DHT22;19920;52.242;20.940;2023-03-12T16:46:59;4.00;99.90
33594;DHT22;19920;52.242;20.940;2023-03-12T16:49:25;3.90;99.90
33594;DHT22;19920;52.242;20.940;2023-03-12T16:51:51;3.80;99.90
33594;DHT22;19920;52.242;20.940;2023-03-12T16:54:17;3.70;99.90
33594;DHT22;19920;52.242;20.940;2023-03-12T16:56:45;3.80;99.90
33594;DHT22;19920;52.242;20.940;2023-03-12T17:01:48;3.70;99.90
33594;DHT22;19920;52.242;20.940;2023-03-12T17:04:14;3.70;99.90
33594;DHT22;19920;52.242;20.940;2023-03-12T17:06:39;3.60;99.90
33594;DHT22;19920;52.242;20.940;2023-03-12T17:09:05;3.60;99.90
33594;DHT22;19920;52.242;20.940;2023-03-12T17:11:33;3.60;99.90
33594;DHT22;19920;52.242;20.940;2023-03-12T17:14:02;3.70;99.90
33594;DHT22;19920;52.242;20.940;2023-03-12T17:16:29;3.70;99.90
33594;DHT22;19920;52.242;20.940;2023-03-12T17:18:55;3.70;99.90
33594;DHT22;19920;52.242;20.940;2023-03-12T17:21:21;3.70;99.90
33594;DHT22;19920;52.242;20.940;2023-03-12T17:23:48;3.70;99.90
33594;DHT22;19920;52.242;20.940;2023-03-12T17:26:15;3.70;99.90
33594;DHT22;19920;52.242;20.940;2023-03-12T17:28:41;3.70;99.90
33594;DHT22;19920;52.242;20.940;2023-03-12T17:31:07;3.60;99.90
33594;DHT22;19920;52.242;20.940;2023-03-12T17:33:33;3.60;99.90
33594;DHT22;19920;52.242;20.940;2023-03-12T17:36:01;3.60;99.90
33594;DHT22;19920;52.242;20.940;2023-03-12T17:38:28;3.60;99.90
33594;DHT22;19920;52.242;20.940;2023-03-12T17:40:54;3.60;99.90
33594;DHT22;19920;52.242;20.940;2023-03-12T17:43:20;3.70;99.90
33594;DHT22;19920;52.242;20.940;2023-03-12T17:45:47;3.80;99.90
33594;DHT22;19920;52.242;20.940;2023-03-12T17:48:13;3.80;99.90
33594;DHT22;19920;52.242;20.940;2023-03-12T17:50:39;3.70;99.90
33594;DHT22;19920;52.242;20.940;2023-03-12T17:53:05;3.70;99.90
33594;DHT22;19920;52.242;20.940;2023-03-12T17:55:30;3.60;99.90
33594;DHT22;19920;52.242;20.940;2023-03-12T17:57:56;3.70;99.90
33594;DHT22;19920;52.242;20.940;2023-03-12T18:00:21;3.70;99.90